sensor_id;sensor_type;location;lat;lon;timestamp;P1;durP1;ratioP1;P2;durP2;ratioP2
19084;SDS011;9675;51.538;6.728;2023-01-08T00:01:57;1.50;;;0.80;;
19084;SDS011;9675;51.538;6.728;2023-01-08T00:04:26;1.27;;;0.73;;
19084;SDS011;9675;51.538;6.728;2023-01-08T00:06:53;3.83;;;1.10;;
19084;SDS011;9675;51.538;6.728;2023-01-08T00:09:20;1.03;;;0.70;;
19084;SDS011;9675;51.538;6.728;2023-01-08T00:11:47;0.70;;;0.67;;
19084;SDS011;9675;51.538;6.728;2023-01-08T00:14:14;3.17;;;0.97;;
19084;SDS011;9675;51.538;6.728;2023-01-08T00:16:41;1.33;;;0.63;;
19084;SDS011;9675;51.538;6.728;2023-01-08T00:19:09;2.73;;;0.77;;
19084;SDS011;9675;51.538;6.728;2023-01-08T00:21:38;1.30;;;0.70;;
19084;SDS011;9675;51.538;6.728;2023-01-08T00:24:05;1.40;;;1.07;;
19084;SDS011;9675;51.538;6.728;2023-01-08T00:26:32;0.73;;;0.70;;
19084;SDS011;9675;51.538;6.728;2023-01-08T00:29:00;1.43;;;0.73;;
19084;SDS011;9675;51.538;6.728;2023-01-08T00:31:27;1.97;;;1.20;;
19084;SDS011;9675;51.538;6.728;2023-01-08T00:33:54;0.87;;;0.73;;
19084;SDS011;9675;51.538;6.728;2023-01-08T00:36:21;1.73;;;0.97;;
19084;SDS011;9675;51.538;6.728;2023-01-08T00:38:49;3.87;;;1.20;;
19084;SDS011;9675;51.538;6.728;2023-01-08T00:41:16;1.67;;;0.73;;
19084;SDS011;9675;51.538;6.728;2023-01-08T00:43:43;1.53;;;0.90;;
19084;SDS011;9675;51.538;6.728;2023-01-08T00:46:10;1.57;;;0.90;;
19084;SDS011;9675;51.538;6.728;2023-01-08T00:48:38;3.63;;;0.70;;
19084;SDS011;9675;51.538;6.728;2023-01-08T00:51:05;0.53;;;0.40;;
19084;SDS011;9675;51.538;6.728;2023-01-08T00:53:34;0.83;;;0.50;;
19084;SDS011;9675;51.538;6.728;2023-01-08T00:56:04;0.83;;;0.50;;
19084;SDS011;9675;51.538;6.728;2023-01-08T00:58:34;0.60;;;0.47;;
19084;SDS011;9675;51.538;6.728;2023-01-08T01:01:01;0.40;;;0.30;;
19084;SDS011;9675;51.538;6.728;2023-01-08T01:03:36;0.87;;;0.57;;
19084;SDS011;9675;51.538;6.728;2023-01-08T01:06:03;0.70;;;0.50;;
19084;SDS011;9675;51.538;6.728;2023-01-08T01:08:31;2.27;;;1.07;;
19084;SDS011;9675;51.538;6.728;2023-01-08T01:10:58;2.53;;;0.60;;
19084;SDS011;9675;51.538;6.728;2023-01-08T01:13:27;1.13;;;0.70;;
19084;SDS011;9675;51.538;6.728;2023-01-08T01:15:57;1.17;;;0.80;;
19084;SDS011;9675;51.538;6.728;2023-01-08T01:18:24;0.60;;;0.50;;
19084;SDS011;9675;51.538;6.728;2023-01-08T01:20:52;1.97;;;0.80;;
19084;SDS011;9675;51.538;6.728;2023-01-08T01:23:19;2.60;;;0.87;;
19084;SDS011;9675;51.538;6.728;2023-01-08T01:25:46;4.03;;;0.60;;
19084;SDS011;9675;51.538;6.728;2023-01-08T01:28:13;0.93;;;0.70;;
19084;SDS011;9675;51.538;6.728;2023-01-08T01:30:43;1.57;;;0.87;;
19084;SDS011;9675;51.538;6.728;2023-01-08T01:33:10;4.67;;;2.33;;
19084;SDS011;9675;51.538;6.728;2023-01-08T01:35:37;2.63;;;1.13;;
19084;SDS011;9675;51.538;6.728;2023-01-08T01:38:04;1.77;;;1.03;;
19084;SDS011;9675;51.538;6.728;2023-01-08T01:40:31;2.63;;;1.17;;
19084;SDS011;9675;51.538;6.728;2023-01-08T01:42:58;2.50;;;1.13;;
19084;SDS011;9675;51.538;6.728;2023-01-08T01:45:25;3.90;;;1.33;;
19084;SDS011;9675;51.538;6.728;2023-01-08T01:47:55;4.53;;;1.10;;
19084;SDS011;9675;51.538;6.728;2023-01-08T01:50:28;1.03;;;0.80;;
19084;SDS011;9675;51.538;6.728;2023-01-08T01:53:02;0.87;;;0.60;;
19084;SDS011;9675;51.538;6.728;2023-01-08T01:55:35;0.83;;;0.70;;
19084;SDS011;9675;51.538;6.728;2023-01-08T01:58:07;3.17;;;0.90;;
19084;SDS011;9675;51.538;6.728;2023-01-08T02:00:40;1.83;;;1.00;;
19084;SDS011;9675;51.538;6.728;2023-01-08T02:03:10;1.33;;;0.97;;
19084;SDS011;9675;51.538;6.728;2023-01-08T02:05:51;4.57;;;0.77;;
19084;SDS011;9675;51.538;6.728;2023-01-08T02:08:27;1.67;;;0.80;;
19084;SDS011;9675;51.538;6.728;2023-01-08T02:11:07;2.60;;;0.80;;
19084;SDS011;9675;51.538;6.728;2023-01-08T02:13:39;3.87;;;1.33;;
19084;SDS011;9675;51.538;6.728;2023-01-08T02:16:17;6.67;;;1.80;;
19084;SDS011;9675;51.538;6.728;2023-01-08T02:18:59;4.23;;;2.00;;
19084;SDS011;9675;51.538;6.728;2023-01-08T02:21:40;3.23;;;1.47;;
19084;SDS011;9675;51.538;6.728;2023-01-08T02:24:26;6.03;;;1.43;;
19084;SDS011;9675;51.538;6.728;2023-01-08T02:27:11;4.00;;;2.10;;
19084;SDS011;9675;51.538;6.728;2023-01-08T02:29:42;4.17;;;2.03;;
19084;SDS011;9675;51.538;6.728;2023-01-08T02:32:10;4.47;;;2.03;;
19084;SDS011;9675;51.538;6.728;2023-01-08T02:34:38;2.97;;;1.40;;
19084;SDS011;9675;51.538;6.728;2023-01-08T02:37:05;3.57;;;0.97;;
19084;SDS011;9675;51.538;6.728;2023-01-08T02:39:42;5.10;;;1.73;;
19084;SDS011;9675;51.538;6.728;2023-01-08T02:42:30;6.07;;;1.50;;
19084;SDS011;9675;51.538;6.728;2023-01-08T02:45:09;4.57;;;1.87;;
19084;SDS011;9675;51.538;6.728;2023-01-08T02:47:52;4.40;;;1.53;;
19084;SDS011;9675;51.538;6.728;2023-01-08T02:50:28;4.30;;;1.50;;
19084;SDS011;9675;51.538;6.728;2023-01-08T02:53:00;6.80;;;1.77;;
19084;SDS011;9675;51.538;6.728;2023-01-08T02:55:36;7.97;;;1.70;;
19084;SDS011;9675;51.538;6.728;2023-01-08T02:58:09;10.00;;;2.27;;
19084;SDS011;9675;51.538;6.728;2023-01-08T03:00:39;2.90;;;1.10;;
19084;SDS011;9675;51.538;6.728;2023-01-08T03:03:11;9.67;;;1.60;;
19084;SDS011;9675;51.538;6.728;2023-01-08T03:05:45;4.60;;;1.70;;
19084;SDS011;9675;51.538;6.728;2023-01-08T03:08:16;2.23;;;1.33;;
19084;SDS011;9675;51.538;6.728;2023-01-08T03:10:47;6.10;;;1.20;;
19084;SDS011;9675;51.538;6.728;2023-01-08T03:13:22;3.57;;;1.20;;
19084;SDS011;9675;51.538;6.728;2023-01-08T03:15:56;3.20;;;1.67;;
19084;SDS011;9675;51.538;6.728;2023-01-08T03:18:30;1.63;;;1.10;;
19084;SDS011;9675;51.538;6.728;2023-01-08T03:21:03;1.47;;;1.20;;
19084;SDS011;9675;51.538;6.728;2023-01-08T03:23:32;1.47;;;0.90;;
19084;SDS011;9675;51.538;6.728;2023-01-08T03:26:02;2.67;;;1.10;;
19084;SDS011;9675;51.538;6.728;2023-01-08T03:28:34;4.83;;;1.53;;
19084;SDS011;9675;51.538;6.728;2023-01-08T03:31:08;2.30;;;1.20;;
19084;SDS011;9675;51.538;6.728;2023-01-08T03:33:35;4.67;;;1.30;;
19084;SDS011;9675;51.538;6.728;2023-01-08T03:36:04;4.07;;;1.13;;
19084;SDS011;9675;51.538;6.728;2023-01-08T03:38:37;2.57;;;0.87;;
19084;SDS011;9675;51.538;6.728;2023-01-08T03:41:10;3.23;;;1.00;;
19084;SDS011;9675;51.538;6.728;2023-01-08T03:43:46;2.23;;;1.00;;
19084;SDS011;9675;51.538;6.728;2023-01-08T03:46:15;2.57;;;0.90;;
19084;SDS011;9675;51.538;6.728;2023-01-08T03:48:47;2.70;;;1.00;;
19084;SDS011;9675;51.538;6.728;2023-01-08T03:51:16;3.80;;;1.20;;
19084;SDS011;9675;51.538;6.728;2023-01-08T03:53:43;5.07;;;1.50;;
19084;SDS011;9675;51.538;6.728;2023-01-08T03:56:11;2.43;;;1.50;;
19084;SDS011;9675;51.538;6.728;2023-01-08T03:58:38;2.77;;;1.10;;
19084;SDS011;9675;51.538;6.728;2023-01-08T04:01:06;2.43;;;1.10;;
19084;SDS011;9675;51.538;6.728;2023-01-08T04:03:33;4.50;;;1.33;;
19084;SDS011;9675;51.538;6.728;2023-01-08T04:06:00;2.67;;;1.30;;
19084;SDS011;9675;51.538;6.728;2023-01-08T04:08:27;3.10;;;1.60;;
19084;SDS011;9675;51.538;6.728;2023-01-08T04:10:54;4.57;;;1.37;;
19084;SDS011;9675;51.538;6.728;2023-01-08T04:13:21;6.70;;;2.03;;
19084;SDS011;9675;51.538;6.728;2023-01-08T04:15:48;3.93;;;1.60;;
19084;SDS011;9675;51.538;6.728;2023-01-08T04:18:17;3.60;;;1.13;;
19084;SDS011;9675;51.538;6.728;2023-01-08T04:20:45;2.97;;;1.43;;
19084;SDS011;9675;51.538;6.728;2023-01-08T04:23:13;6.07;;;1.43;;
19084;SDS011;9675;51.538;6.728;2023-01-08T04:25:40;5.50;;;1.47;;
19084;SDS011;9675;51.538;6.728;2023-01-08T04:28:08;4.10;;;1.37;;
19084;SDS011;9675;51.538;6.728;2023-01-08T04:30:35;4.37;;;1.97;;
19084;SDS011;9675;51.538;6.728;2023-01-08T04:33:02;4.77;;;1.23;;
19084;SDS011;9675;51.538;6.728;2023-01-08T04:35:31;2.20;;;1.30;;
19084;SDS011;9675;51.538;6.728;2023-01-08T04:37:58;2.27;;;1.10;;
19084;SDS011;9675;51.538;6.728;2023-01-08T04:40:25;3.33;;;1.53;;
19084;SDS011;9675;51.538;6.728;2023-01-08T04:42:52;3.67;;;1.50;;
19084;SDS011;9675;51.538;6.728;2023-01-08T04:45:19;2.93;;;1.40;;
19084;SDS011;9675;51.538;6.728;2023-01-08T04:47:46;3.07;;;1.40;;
19084;SDS011;9675;51.538;6.728;2023-01-08T04:50:13;4.00;;;1.60;;
19084;SDS011;9675;51.538;6.728;2023-01-08T04:52:41;4.60;;;1.50;;
19084;SDS011;9675;51.538;6.728;2023-01-08T04:55:08;4.60;;;1.20;;
19084;SDS011;9675;51.538;6.728;2023-01-08T04:57:35;4.87;;;2.40;;
19084;SDS011;9675;51.538;6.728;2023-01-08T05:00:03;6.83;;;1.87;;
19084;SDS011;9675;51.538;6.728;2023-01-08T05:02:32;5.33;;;2.00;;
19084;SDS011;9675;51.538;6.728;2023-01-08T05:04:59;1.13;;;0.90;;
19084;SDS011;9675;51.538;6.728;2023-01-08T05:07:26;2.97;;;1.37;;
19084;SDS011;9675;51.538;6.728;2023-01-08T05:09:55;2.73;;;1.20;;
19084;SDS011;9675;51.538;6.728;2023-01-08T05:12:22;2.07;;;1.20;;
19084;SDS011;9675;51.538;6.728;2023-01-08T05:14:49;4.30;;;1.53;;
19084;SDS011;9675;51.538;6.728;2023-01-08T05:17:16;3.13;;;1.50;;
19084;SDS011;9675;51.538;6.728;2023-01-08T05:19:43;2.67;;;1.10;;
19084;SDS011;9675;51.538;6.728;2023-01-08T05:22:10;4.87;;;1.83;;
19084;SDS011;9675;51.538;6.728;2023-01-08T05:24:37;7.70;;;2.10;;
19084;SDS011;9675;51.538;6.728;2023-01-08T05:27:05;2.43;;;1.20;;
19084;SDS011;9675;51.538;6.728;2023-01-08T05:29:32;3.53;;;1.57;;
19084;SDS011;9675;51.538;6.728;2023-01-08T05:31:59;6.87;;;1.40;;
19084;SDS011;9675;51.538;6.728;2023-01-08T05:34:26;2.67;;;1.20;;
19084;SDS011;9675;51.538;6.728;2023-01-08T05:36:53;2.70;;;1.13;;
19084;SDS011;9675;51.538;6.728;2023-01-08T05:39:20;2.40;;;0.80;;
19084;SDS011;9675;51.538;6.728;2023-01-08T05:41:47;3.37;;;1.07;;
19084;SDS011;9675;51.538;6.728;2023-01-08T05:44:16;3.03;;;1.10;;
19084;SDS011;9675;51.538;6.728;2023-01-08T05:46:43;2.00;;;0.53;;
19084;SDS011;9675;51.538;6.728;2023-01-08T05:49:10;1.90;;;0.57;;
19084;SDS011;9675;51.538;6.728;2023-01-08T05:51:37;1.70;;;0.53;;
19084;SDS011;9675;51.538;6.728;2023-01-08T05:54:04;2.87;;;1.20;;
19084;SDS011;9675;51.538;6.728;2023-01-08T05:56:31;1.50;;;0.57;;
19084;SDS011;9675;51.538;6.728;2023-01-08T05:58:58;5.17;;;1.63;;
19084;SDS011;9675;51.538;6.728;2023-01-08T06:01:26;0.77;;;0.53;;
19084;SDS011;9675;51.538;6.728;2023-01-08T06:03:53;1.70;;;0.57;;
19084;SDS011;9675;51.538;6.728;2023-01-08T06:06:22;2.53;;;0.90;;
19084;SDS011;9675;51.538;6.728;2023-01-08T06:08:50;1.60;;;0.60;;
19084;SDS011;9675;51.538;6.728;2023-01-08T06:11:17;2.10;;;0.93;;
19084;SDS011;9675;51.538;6.728;2023-01-08T06:13:44;2.57;;;1.30;;
19084;SDS011;9675;51.538;6.728;2023-01-08T06:16:11;0.80;;;0.30;;
19084;SDS011;9675;51.538;6.728;2023-01-08T06:18:40;0.40;;;0.40;;
19084;SDS011;9675;51.538;6.728;2023-01-08T06:21:07;3.20;;;1.50;;
19084;SDS011;9675;51.538;6.728;2023-01-08T06:23:36;1.27;;;0.27;;
19084;SDS011;9675;51.538;6.728;2023-01-08T06:26:03;2.33;;;0.67;;
19084;SDS011;9675;51.538;6.728;2023-01-08T06:28:31;1.10;;;0.30;;
19084;SDS011;9675;51.538;6.728;2023-01-08T06:30:58;0.57;;;0.40;;
19084;SDS011;9675;51.538;6.728;2023-01-08T06:33:27;0.70;;;0.30;;
19084;SDS011;9675;51.538;6.728;2023-01-08T06:35:59;1.50;;;0.50;;
19084;SDS011;9675;51.538;6.728;2023-01-08T06:38:29;0.20;;;0.20;;
19084;SDS011;9675;51.538;6.728;2023-01-08T06:40:57;0.87;;;0.23;;
19084;SDS011;9675;51.538;6.728;2023-01-08T06:43:24;0.63;;;0.33;;
19084;SDS011;9675;51.538;6.728;2023-01-08T06:45:52;2.50;;;0.37;;
19084;SDS011;9675;51.538;6.728;2023-01-08T06:48:19;0.73;;;0.20;;
19084;SDS011;9675;51.538;6.728;2023-01-08T06:50:46;2.23;;;0.50;;
19084;SDS011;9675;51.538;6.728;2023-01-08T06:53:15;0.57;;;0.30;;
19084;SDS011;9675;51.538;6.728;2023-01-08T06:55:42;0.40;;;0.20;;
19084;SDS011;9675;51.538;6.728;2023-01-08T06:58:09;0.20;;;0.20;;
19084;SDS011;9675;51.538;6.728;2023-01-08T07:00:37;0.20;;;0.10;;
19084;SDS011;9675;51.538;6.728;2023-01-08T07:03:04;0.00;;;0.00;;
19084;SDS011;9675;51.538;6.728;2023-01-08T07:05:31;0.93;;;0.30;;
19084;SDS011;9675;51.538;6.728;2023-01-08T07:07:58;0.33;;;0.33;;
19084;SDS011;9675;51.538;6.728;2023-01-08T07:10:26;2.40;;;0.20;;
19084;SDS011;9675;51.538;6.728;2023-01-08T07:12:55;0.30;;;0.20;;
19084;SDS011;9675;51.538;6.728;2023-01-08T07:15:22;0.27;;;0.10;;
19084;SDS011;9675;51.538;6.728;2023-01-08T07:17:49;1.17;;;0.20;;
19084;SDS011;9675;51.538;6.728;2023-01-08T07:20:16;0.23;;;0.10;;
19084;SDS011;9675;51.538;6.728;2023-01-08T07:22:43;0.73;;;0.13;;
19084;SDS011;9675;51.538;6.728;2023-01-08T07:25:10;0.77;;;0.30;;
19084;SDS011;9675;51.538;6.728;2023-01-08T07:27:39;2.37;;;0.57;;
19084;SDS011;9675;51.538;6.728;2023-01-08T07:30:06;0.30;;;0.10;;
19084;SDS011;9675;51.538;6.728;2023-01-08T07:32:34;0.23;;;0.10;;
19084;SDS011;9675;51.538;6.728;2023-01-08T07:35:01;1.93;;;0.40;;
19084;SDS011;9675;51.538;6.728;2023-01-08T07:37:29;5.97;;;2.13;;
19084;SDS011;9675;51.538;6.728;2023-01-08T07:39:56;10.13;;;4.57;;
19084;SDS011;9675;51.538;6.728;2023-01-08T07:42:23;6.43;;;2.87;;
19084;SDS011;9675;51.538;6.728;2023-01-08T07:44:52;4.13;;;0.80;;
19084;SDS011;9675;51.538;6.728;2023-01-08T07:47:19;2.00;;;0.83;;
19084;SDS011;9675;51.538;6.728;2023-01-08T07:49:46;0.60;;;0.30;;
19084;SDS011;9675;51.538;6.728;2023-01-08T07:52:13;6.03;;;0.40;;
19084;SDS011;9675;51.538;6.728;2023-01-08T07:54:40;2.77;;;0.33;;
19084;SDS011;9675;51.538;6.728;2023-01-08T07:57:07;0.40;;;0.20;;
19084;SDS011;9675;51.538;6.728;2023-01-08T07:59:34;0.30;;;0.20;;
19084;SDS011;9675;51.538;6.728;2023-01-08T08:02:03;2.17;;;0.33;;
19084;SDS011;9675;51.538;6.728;2023-01-08T08:04:30;0.50;;;0.20;;
19084;SDS011;9675;51.538;6.728;2023-01-08T08:06:57;2.10;;;0.40;;
19084;SDS011;9675;51.538;6.728;2023-01-08T08:09:24;0.67;;;0.33;;
19084;SDS011;9675;51.538;6.728;2023-01-08T08:11:51;0.87;;;0.30;;
19084;SDS011;9675;51.538;6.728;2023-01-08T08:14:18;2.60;;;0.30;;
19084;SDS011;9675;51.538;6.728;2023-01-08T08:16:45;5.30;;;0.57;;
19084;SDS011;9675;51.538;6.728;2023-01-08T08:19:16;3.97;;;0.47;;
19084;SDS011;9675;51.538;6.728;2023-01-08T08:21:43;2.17;;;0.40;;
19084;SDS011;9675;51.538;6.728;2023-01-08T08:24:10;1.03;;;0.40;;
19084;SDS011;9675;51.538;6.728;2023-01-08T08:26:37;2.33;;;0.40;;
19084;SDS011;9675;51.538;6.728;2023-01-08T08:29:04;1.67;;;0.30;;
19084;SDS011;9675;51.538;6.728;2023-01-08T08:31:31;1.23;;;0.33;;
19084;SDS011;9675;51.538;6.728;2023-01-08T08:33:58;1.17;;;0.20;;
19084;SDS011;9675;51.538;6.728;2023-01-08T08:36:30;1.13;;;0.33;;
19084;SDS011;9675;51.538;6.728;2023-01-08T08:38:57;3.30;;;0.40;;
19084;SDS011;9675;51.538;6.728;2023-01-08T08:41:24;2.40;;;0.60;;
19084;SDS011;9675;51.538;6.728;2023-01-08T08:43:51;1.57;;;0.80;;
19084;SDS011;9675;51.538;6.728;2023-01-08T08:46:18;6.50;;;1.43;;
19084;SDS011;9675;51.538;6.728;2023-01-08T08:48:45;3.13;;;1.00;;
19084;SDS011;9675;51.538;6.728;2023-01-08T08:51:13;4.77;;;1.27;;
19084;SDS011;9675;51.538;6.728;2023-01-08T08:53:42;2.13;;;0.97;;
19084;SDS011;9675;51.538;6.728;2023-01-08T08:56:09;1.93;;;0.40;;
19084;SDS011;9675;51.538;6.728;2023-01-08T08:58:36;2.63;;;0.67;;
19084;SDS011;9675;51.538;6.728;2023-01-08T09:01:05;2.83;;;0.80;;
19084;SDS011;9675;51.538;6.728;2023-01-08T09:03:33;4.03;;;0.60;;
19084;SDS011;9675;51.538;6.728;2023-01-08T09:06:00;1.83;;;0.77;;
19084;SDS011;9675;51.538;6.728;2023-01-08T09:08:27;2.57;;;0.60;;
19084;SDS011;9675;51.538;6.728;2023-01-08T09:10:56;1.43;;;0.50;;
19084;SDS011;9675;51.538;6.728;2023-01-08T09:13:23;2.73;;;0.77;;
19084;SDS011;9675;51.538;6.728;2023-01-08T09:15:50;2.93;;;0.83;;
19084;SDS011;9675;51.538;6.728;2023-01-08T09:18:17;3.10;;;0.60;;
19084;SDS011;9675;51.538;6.728;2023-01-08T09:20:45;3.83;;;0.50;;
19084;SDS011;9675;51.538;6.728;2023-01-08T09:23:12;3.03;;;1.03;;
19084;SDS011;9675;51.538;6.728;2023-01-08T09:25:39;5.43;;;1.50;;
19084;SDS011;9675;51.538;6.728;2023-01-08T09:28:09;11.80;;;1.40;;
19084;SDS011;9675;51.538;6.728;2023-01-08T09:30:37;4.67;;;1.30;;
19084;SDS011;9675;51.538;6.728;2023-01-08T09:33:05;7.57;;;1.13;;
19084;SDS011;9675;51.538;6.728;2023-01-08T09:35:32;6.03;;;1.17;;
19084;SDS011;9675;51.538;6.728;2023-01-08T09:38:00;3.20;;;0.77;;
19084;SDS011;9675;51.538;6.728;2023-01-08T09:40:27;7.33;;;1.20;;
19084;SDS011;9675;51.538;6.728;2023-01-08T09:43:02;3.57;;;0.80;;
19084;SDS011;9675;51.538;6.728;2023-01-08T09:45:33;3.40;;;0.80;;
19084;SDS011;9675;51.538;6.728;2023-01-08T09:48:05;4.70;;;0.80;;
19084;SDS011;9675;51.538;6.728;2023-01-08T09:50:39;1.23;;;0.70;;
19084;SDS011;9675;51.538;6.728;2023-01-08T09:53:08;3.70;;;0.80;;
19084;SDS011;9675;51.538;6.728;2023-01-08T09:55:39;2.03;;;1.03;;
19084;SDS011;9675;51.538;6.728;2023-01-08T09:58:09;2.50;;;0.90;;
19084;SDS011;9675;51.538;6.728;2023-01-08T10:00:51;2.87;;;0.93;;
19084;SDS011;9675;51.538;6.728;2023-01-08T10:03:20;3.00;;;0.67;;
19084;SDS011;9675;51.538;6.728;2023-01-08T10:05:52;2.70;;;0.87;;
19084;SDS011;9675;51.538;6.728;2023-01-08T10:08:20;2.17;;;0.80;;
19084;SDS011;9675;51.538;6.728;2023-01-08T10:10:47;2.67;;;0.50;;
19084;SDS011;9675;51.538;6.728;2023-01-08T10:13:14;1.43;;;0.90;;
19084;SDS011;9675;51.538;6.728;2023-01-08T10:15:41;3.10;;;0.33;;
19084;SDS011;9675;51.538;6.728;2023-01-08T10:18:11;4.57;;;0.50;;
19084;SDS011;9675;51.538;6.728;2023-01-08T10:20:40;6.10;;;0.73;;
19084;SDS011;9675;51.538;6.728;2023-01-08T10:23:08;6.07;;;0.93;;
19084;SDS011;9675;51.538;6.728;2023-01-08T10:28:25;4.63;;;0.77;;
19084;SDS011;9675;51.538;6.728;2023-01-08T10:30:59;3.90;;;0.87;;
19084;SDS011;9675;51.538;6.728;2023-01-08T10:33:39;4.53;;;0.70;;
19084;SDS011;9675;51.538;6.728;2023-01-08T10:36:11;3.07;;;0.97;;
19084;SDS011;9675;51.538;6.728;2023-01-08T10:38:47;4.57;;;1.07;;
19084;SDS011;9675;51.538;6.728;2023-01-08T10:41:19;2.47;;;0.37;;
19084;SDS011;9675;51.538;6.728;2023-01-08T10:43:49;1.03;;;0.50;;
19084;SDS011;9675;51.538;6.728;2023-01-08T10:46:21;2.73;;;0.60;;
19084;SDS011;9675;51.538;6.728;2023-01-08T10:48:54;3.20;;;0.70;;
19084;SDS011;9675;51.538;6.728;2023-01-08T10:51:25;3.63;;;0.60;;
19084;SDS011;9675;51.538;6.728;2023-01-08T10:53:57;3.37;;;0.77;;
19084;SDS011;9675;51.538;6.728;2023-01-08T10:56:27;0.70;;;0.50;;
19084;SDS011;9675;51.538;6.728;2023-01-08T10:59:05;3.43;;;1.00;;
19084;SDS011;9675;51.538;6.728;2023-01-08T11:01:45;6.47;;;0.97;;
19084;SDS011;9675;51.538;6.728;2023-01-08T11:04:19;3.77;;;1.20;;
19084;SDS011;9675;51.538;6.728;2023-01-08T11:06:53;7.57;;;1.60;;
19084;SDS011;9675;51.538;6.728;2023-01-08T11:09:25;3.47;;;1.00;;
19084;SDS011;9675;51.538;6.728;2023-01-08T11:11:57;6.23;;;1.10;;
19084;SDS011;9675;51.538;6.728;2023-01-08T11:14:26;5.33;;;0.87;;
19084;SDS011;9675;51.538;6.728;2023-01-08T11:16:59;2.37;;;0.93;;
19084;SDS011;9675;51.538;6.728;2023-01-08T11:19:34;6.17;;;1.23;;
19084;SDS011;9675;51.538;6.728;2023-01-08T11:22:04;4.17;;;1.17;;
19084;SDS011;9675;51.538;6.728;2023-01-08T11:24:43;5.63;;;1.33;;
19084;SDS011;9675;51.538;6.728;2023-01-08T11:27:13;4.50;;;1.00;;
19084;SDS011;9675;51.538;6.728;2023-01-08T11:29:48;5.93;;;1.03;;
19084;SDS011;9675;51.538;6.728;2023-01-08T11:32:37;2.40;;;1.17;;
19084;SDS011;9675;51.538;6.728;2023-01-08T11:35:14;3.23;;;1.27;;
19084;SDS011;9675;51.538;6.728;2023-01-08T11:37:48;2.97;;;1.30;;
19084;SDS011;9675;51.538;6.728;2023-01-08T11:40:21;3.97;;;1.37;;
19084;SDS011;9675;51.538;6.728;2023-01-08T11:43:10;5.70;;;1.60;;
19084;SDS011;9675;51.538;6.728;2023-01-08T11:45:52;2.70;;;1.17;;
19084;SDS011;9675;51.538;6.728;2023-01-08T11:48:49;4.60;;;1.97;;
19084;SDS011;9675;51.538;6.728;2023-01-08T11:52:00;3.30;;;1.27;;
19084;SDS011;9675;51.538;6.728;2023-01-08T11:54:57;7.30;;;1.50;;
19084;SDS011;9675;51.538;6.728;2023-01-08T11:57:47;1.97;;;0.87;;
19084;SDS011;9675;51.538;6.728;2023-01-08T12:00:42;4.27;;;0.70;;
19084;SDS011;9675;51.538;6.728;2023-01-08T12:03:25;1.47;;;0.73;;
19084;SDS011;9675;51.538;6.728;2023-01-08T12:06:11;6.60;;;1.43;;
19084;SDS011;9675;51.538;6.728;2023-01-08T12:08:56;4.00;;;0.60;;
19084;SDS011;9675;51.538;6.728;2023-01-08T12:11:40;0.50;;;0.33;;
19084;SDS011;9675;51.538;6.728;2023-01-08T12:14:18;1.80;;;0.43;;
19084;SDS011;9675;51.538;6.728;2023-01-08T12:17:06;1.50;;;0.53;;
19084;SDS011;9675;51.538;6.728;2023-01-08T12:19:59;1.03;;;0.70;;
19084;SDS011;9675;51.538;6.728;2023-01-08T12:22:46;3.80;;;0.73;;
19084;SDS011;9675;51.538;6.728;2023-01-08T12:25:32;3.57;;;0.50;;
19084;SDS011;9675;51.538;6.728;2023-01-08T12:28:45;1.43;;;0.70;;
19084;SDS011;9675;51.538;6.728;2023-01-08T12:31:42;1.30;;;0.53;;
19084;SDS011;9675;51.538;6.728;2023-01-08T12:34:41;1.00;;;0.40;;
19084;SDS011;9675;51.538;6.728;2023-01-08T12:37:20;2.47;;;0.80;;
19084;SDS011;9675;51.538;6.728;2023-01-08T12:39:55;0.57;;;0.37;;
19084;SDS011;9675;51.538;6.728;2023-01-08T12:42:32;0.60;;;0.37;;
19084;SDS011;9675;51.538;6.728;2023-01-08T12:45:07;1.27;;;0.40;;
19084;SDS011;9675;51.538;6.728;2023-01-08T12:47:46;0.97;;;0.30;;
19084;SDS011;9675;51.538;6.728;2023-01-08T12:50:20;1.03;;;0.30;;
19084;SDS011;9675;51.538;6.728;2023-01-08T12:53:07;2.27;;;0.60;;
19084;SDS011;9675;51.538;6.728;2023-01-08T12:55:47;0.40;;;0.40;;
19084;SDS011;9675;51.538;6.728;2023-01-08T12:58:30;0.80;;;0.27;;
19084;SDS011;9675;51.538;6.728;2023-01-08T13:01:13;0.83;;;0.43;;
19084;SDS011;9675;51.538;6.728;2023-01-08T13:03:54;0.57;;;0.20;;
19084;SDS011;9675;51.538;6.728;2023-01-08T13:06:25;3.33;;;0.30;;
19084;SDS011;9675;51.538;6.728;2023-01-08T13:08:53;2.20;;;0.47;;
19084;SDS011;9675;51.538;6.728;2023-01-08T13:11:23;1.90;;;0.30;;
19084;SDS011;9675;51.538;6.728;2023-01-08T13:13:58;0.87;;;0.40;;
19084;SDS011;9675;51.538;6.728;2023-01-08T13:16:28;1.27;;;0.40;;
19084;SDS011;9675;51.538;6.728;2023-01-08T13:18:59;0.50;;;0.40;;
19084;SDS011;9675;51.538;6.728;2023-01-08T13:21:29;0.93;;;0.40;;
19084;SDS011;9675;51.538;6.728;2023-01-08T13:24:01;0.23;;;0.20;;
19084;SDS011;9675;51.538;6.728;2023-01-08T13:26:50;0.87;;;0.30;;
19084;SDS011;9675;51.538;6.728;2023-01-08T13:29:34;0.70;;;0.33;;
19084;SDS011;9675;51.538;6.728;2023-01-08T13:35:02;1.13;;;0.30;;
19084;SDS011;9675;51.538;6.728;2023-01-08T13:37:47;1.37;;;0.50;;
19084;SDS011;9675;51.538;6.728;2023-01-08T13:40:35;0.60;;;0.40;;
19084;SDS011;9675;51.538;6.728;2023-01-08T13:43:20;0.40;;;0.30;;
19084;SDS011;9675;51.538;6.728;2023-01-08T13:46:05;0.30;;;0.30;;
19084;SDS011;9675;51.538;6.728;2023-01-08T13:48:46;0.40;;;0.30;;
19084;SDS011;9675;51.538;6.728;2023-01-08T13:51:26;2.80;;;0.40;;
19084;SDS011;9675;51.538;6.728;2023-01-08T13:54:20;0.73;;;0.50;;
19084;SDS011;9675;51.538;6.728;2023-01-08T13:57:04;0.73;;;0.43;;
19084;SDS011;9675;51.538;6.728;2023-01-08T13:59:40;2.20;;;0.70;;
19084;SDS011;9675;51.538;6.728;2023-01-08T14:02:22;4.97;;;2.27;;
19084;SDS011;9675;51.538;6.728;2023-01-08T14:04:55;5.03;;;1.50;;
19084;SDS011;9675;51.538;6.728;2023-01-08T14:07:23;3.10;;;1.73;;
19084;SDS011;9675;51.538;6.728;2023-01-08T14:09:51;2.70;;;1.40;;
19084;SDS011;9675;51.538;6.728;2023-01-08T14:12:19;0.70;;;0.43;;
19084;SDS011;9675;51.538;6.728;2023-01-08T14:14:49;1.37;;;0.33;;
19084;SDS011;9675;51.538;6.728;2023-01-08T14:17:20;1.37;;;0.40;;
19084;SDS011;9675;51.538;6.728;2023-01-08T14:19:55;0.40;;;0.30;;
19084;SDS011;9675;51.538;6.728;2023-01-08T14:22:22;0.87;;;0.50;;
19084;SDS011;9675;51.538;6.728;2023-01-08T14:24:57;2.33;;;0.67;;
19084;SDS011;9675;51.538;6.728;2023-01-08T14:27:30;0.43;;;0.30;;
19084;SDS011;9675;51.538;6.728;2023-01-08T14:29:58;0.60;;;0.30;;
19084;SDS011;9675;51.538;6.728;2023-01-08T14:32:27;0.50;;;0.30;;
19084;SDS011;9675;51.538;6.728;2023-01-08T14:34:56;0.87;;;0.20;;
19084;SDS011;9675;51.538;6.728;2023-01-08T14:37:26;0.40;;;0.20;;
19084;SDS011;9675;51.538;6.728;2023-01-08T14:39:53;1.57;;;0.30;;
19084;SDS011;9675;51.538;6.728;2023-01-08T14:42:20;1.90;;;0.30;;
19084;SDS011;9675;51.538;6.728;2023-01-08T14:45:14;2.13;;;0.40;;
19084;SDS011;9675;51.538;6.728;2023-01-08T14:47:46;0.90;;;0.30;;
19084;SDS011;9675;51.538;6.728;2023-01-08T14:50:20;1.90;;;0.40;;
19084;SDS011;9675;51.538;6.728;2023-01-08T14:52:51;0.43;;;0.23;;
19084;SDS011;9675;51.538;6.728;2023-01-08T14:55:23;2.63;;;0.30;;
19084;SDS011;9675;51.538;6.728;2023-01-08T14:57:53;0.93;;;0.30;;
19084;SDS011;9675;51.538;6.728;2023-01-08T15:00:22;0.10;;;0.10;;
19084;SDS011;9675;51.538;6.728;2023-01-08T15:02:56;1.70;;;0.40;;
19084;SDS011;9675;51.538;6.728;2023-01-08T15:05:25;0.57;;;0.30;;
19084;SDS011;9675;51.538;6.728;2023-01-08T15:07:57;0.23;;;0.17;;
19084;SDS011;9675;51.538;6.728;2023-01-08T15:10:31;1.07;;;0.37;;
19084;SDS011;9675;51.538;6.728;2023-01-08T15:13:05;1.33;;;0.43;;
19084;SDS011;9675;51.538;6.728;2023-01-08T15:15:50;0.47;;;0.40;;
19084;SDS011;9675;51.538;6.728;2023-01-08T15:18:24;3.53;;;0.50;;
19084;SDS011;9675;51.538;6.728;2023-01-08T15:20:51;2.10;;;0.30;;
19084;SDS011;9675;51.538;6.728;2023-01-08T15:23:24;0.40;;;0.07;;
19084;SDS011;9675;51.538;6.728;2023-01-08T15:25:58;2.23;;;0.20;;
19084;SDS011;9675;51.538;6.728;2023-01-08T15:28:26;0.37;;;0.23;;
19084;SDS011;9675;51.538;6.728;2023-01-08T15:30:54;0.73;;;0.30;;
19084;SDS011;9675;51.538;6.728;2023-01-08T15:33:24;0.50;;;0.20;;